Latest Coastal Weather Observations for King Island Airport

IDV60701

Issued at 7:02 am EDT Saturday 21 January 2017 (issued every 10 minutes, with the page automatically refreshed every 10 minutes)

About coastal observations | Map of coastal stations | Coastal observations for VIC | Marine services | Other Formats
Station Details ID: 098017 Name: KING ISLAND AIRPORT Lat: -39.88 Lon: 143.88 Height: 37.0 m
Data from the previous 72 hours. | See also: Recent months at King Island Airport
Date/Time
EDT
Temp
°C
Wind Pressure Rain since
9am
mm
Weather Cloud Vis
km
Sea
Height
m
Swell
Dir  Spd
kts
Gust
kts
hPa Trend Height
m
Period
s
Dir
21/07:00am 14.5 WSW 8 11 1012.4 - 1.8 - Partly cloudy 10 - - - -
21/06:30am 14.4 WSW 11 15 1012.1 - 1.8 - Partly cloudy 10 - - - -
21/06:00am 14.1 WSW 10 15 1011.7 - 1.8 - Cloudy 10 - - - -
21/05:30am 14.1 WSW 9 12 1011.3 - 1.8 - Partly cloudy 10 - - - -
21/05:00am 13.8 WSW 7 9 1010.9 - 1.8 - Partly cloudy 10 - - - -
21/04:30am 13.6 WSW 8 11 1010.7 - 1.8 - Partly cloudy 10 - - - -
21/04:00am 13.6 WSW 8 11 1010.6 - 1.8 - Partly cloudy 10 - - - -
21/03:30am 13.4 WSW 8 10 1010.4 - 1.8 - Partly cloudy 10 - - - -
21/03:00am 13.4 SW 9 12 1010.3 - 1.8 - Mostly cloudy 10 - - - -
21/02:30am 13.3 SW 9 10 1010.3 - 1.8 - Partly cloudy 10 - - - -
21/02:00am 13.1 SW 10 14 1010.2 - 1.8 - Partly cloudy 10 - - - -
21/01:30am 13.2 SW 9 14 1010.1 - 1.8 - Partly cloudy 10 - - - -
21/01:00am 13.6 SW 10 14 1010.0 - 1.8 - Partly cloudy 10 - - - -
21/12:30am 13.6 SW 9 13 1009.9 - 1.8 - Partly cloudy 10 - - - -
21/12:00am 13.6 SW 10 14 1010.0 - 1.8 - Cloudy 10 - - - -
 
Date/Time
EDT
Temp
°C
Wind Pressure Rain since
9am
mm
Weather Cloud Vis
km
Sea
Height
m
Swell
Dir  Spd
kts
Gust
kts
hPa Trend Height
m
Period
s
Dir
20/11:30pm 13.3 SSW 10 14 1009.8 - 1.8 - Partly cloudy 10 - - - -
20/11:00pm 13.5 SW 12 16 1009.7 - 1.8 - Partly cloudy 10 - - - -
20/10:30pm 13.5 SW 12 17 1009.7 - 1.8 - Partly cloudy 10 - - - -
20/10:00pm 13.4 SSW 14 18 1009.3 - 1.8 - Partly cloudy 10 - - - -
20/09:30pm 13.4 SSW 15 19 1008.8 - 1.8 - Partly cloudy 10 - - - -
20/09:00pm 13.6 SSW 13 18 1008.4 - 1.8 - Cloudy 10 - - - -
20/08:30pm 13.7 SSW 15 20 1008.0 - 1.8 - Partly cloudy 10 - - - -
20/08:00pm 14.3 SSW 18 23 1007.5 - 1.8 - Partly cloudy 10 - - - -
20/07:30pm 14.1 SSW 17 24 1007.2 - 1.8 - Partly cloudy 10 - - - -
20/07:00pm 14.6 SSW 20 29 1006.6 - 1.8 - Partly cloudy 10 - - - -
20/06:57pm 14.6 SSW 19 29 1006.5 - 1.8 - Partly cloudy 10 - - - -
20/06:30pm 14.5 SSW 21 29 1006.1 - 1.8 - Partly cloudy 10 - - - -
20/06:00pm 14.9 SSW 21 29 1005.6 - 1.8 - Cloudy 10 - - - -
20/05:30pm 15.6 SW 21 28 1005.1 - 1.8 - Partly cloudy 10 - - - -
20/05:00pm 16.0 SSW 20 27 1004.6 - 1.8 - Partly cloudy 10 - - - -
20/04:30pm 16.1 SSW 23 29 1004.0 - 1.8 - Partly cloudy 10 - - - -
20/04:00pm 15.7 SW 24 31 1003.9 - 1.8 - Partly cloudy 10 - - - -
20/03:31pm 15.6 SW 23 34 1003.5 - 1.8 - Partly cloudy 10 - - - -
20/03:30pm 15.2 SW 23 31 1003.5 - 1.8 - Partly cloudy 10 - - - -
20/03:16pm 14.9 SW 23 30 1003.2 - 1.8 - Partly cloudy 10 - - - -
20/03:00pm 14.6 SW 21 28 1002.9 - 1.8 Recent precip. Cloudy 10 - - - -
20/02:48pm 14.2 SW 21 29 1002.6 - 1.8 - Partly cloudy 9 - - - -
20/02:30pm 14.5 SSW 21 28 1001.9 - 1.6 - Partly cloudy 5 - - - -
20/02:29pm 14.5 SSW 20 28 1001.9 - 1.6 - Partly cloudy 5 - - - -
20/02:21pm 15.2 SSW 21 29 1001.6 - 1.6 - Partly cloudy 10 - - - -
20/02:16pm 15.2 SSW 23 29 1001.5 - 1.6 - Partly cloudy 10 - - - -
20/02:07pm 15.2 SSW 19 29 1001.2 - 1.6 - Partly cloudy 10 - - - -
20/02:00pm 14.3 SSW 18 25 1001.3 - 1.6 - Partly cloudy 8 - - - -
20/01:55pm 13.9 SSW 19 26 1001.3 - 1.6 - Partly cloudy 6 - - - -
20/01:32pm 14.5 SSW 19 26 1001.0 - 1.4 - Partly cloudy 4 - - - -
20/01:30pm 14.4 SSW 19 26 1001.0 - 1.4 - Partly cloudy 4 - - - -
20/01:10pm 15.0 SW 21 27 1001.1 - 0.6 - Partly cloudy 5 - - - -
20/01:00pm 16.0 SSW 21 27 1000.7 - 0.2 - Partly cloudy 10 - - - -
20/12:30pm 16.2 SSW 21 28 1000.0 - 0.2 - Partly cloudy 10 - - - -
20/12:19pm 17.3 SSW 19 28 999.6 - 0.2 - Partly cloudy 10 - - - -
20/12:00pm 15.8 SSW 19 25 999.1 - 0.2 - Cloudy 10 - - - -
20/11:30am 15.6 SSW 18 23 998.0 - 0.2 - Partly cloudy 10 - - - -
20/11:00am 16.7 SSW 19 26 996.9 - 0.2 - Partly cloudy 10 - - - -
20/10:30am 15.0 SSW 18 24 996.3 - 0.2 - Partly cloudy 10 - - - -
20/10:00am 14.5 SSW 18 24 996.0 - 0.2 - Partly cloudy 10 - - - -
20/09:40am 14.1 SSW 21 28 995.9 - 0.2 - Partly cloudy 5 - - - -
20/09:30am 14.1 SSW 20 28 996.0 - 0.2 - Partly cloudy 10 - - - -
20/09:00am 13.9 SSW 20 30 995.6 - 27.2 Drizzle Cloudy 10 - - - -
20/08:53am 13.8 SSW 19 30 995.6 - 27.2 - Partly cloudy 10 - - - -
20/08:30am 13.9 SSW 22 29 995.6 - 27.2 - Partly cloudy 10 - - - -
20/08:00am 13.6 SSW 22 30 995.9 - 27.2 - Partly cloudy 10 - - - -
20/07:30am 13.4 SSW 22 29 995.6 - 27.2 - Partly cloudy 7 - - - -
20/07:16am 13.6 SSW 20 31 995.6 - 27.0 - Cloudy 6 - - - -
20/07:13am 13.7 SSW 21 31 995.6 - 26.8 - Cloudy 6 - - - -
20/07:00am 14.1 SSW 18 26 995.5 - 26.0 - Cloudy 4 - - - -
20/06:50am 14.6 SW 15 21 995.3 - 25.4 - Partly cloudy 4 - - - -
20/06:30am 15.0 WSW 8 11 995.0 - 23.4 - Partly cloudy 4 - - - -
20/06:00am 15.0 W 9 14 994.7 - 16.4 Rain Cloudy 2 - - - -
20/05:30am 16.1 S 2 6 994.2 - 8.8 - Partly cloudy 4 - - - -
20/05:27am 16.0 SE 2 7 994.2 - 8.6 - Partly cloudy 5 - - - -
20/05:22am 16.1 E 5 7 994.3 - 8.2 - Partly cloudy 7 - - - -
20/05:00am 16.0 ENE 9 13 993.9 - 7.6 - Partly cloudy 5 - - - -
20/04:59am 16.0 ENE 9 15 994.0 - 7.6 - Partly cloudy 5 - - - -
20/04:30am 15.9 ENE 12 19 994.5 - 7.2 - Cloudy 10 - - - -
20/04:00am 15.7 ENE 16 22 995.0 - 7.2 - Cloudy 10 - - - -
20/03:32am 15.7 ENE 19 27 994.5 - 6.8 - Partly cloudy 7 - - - -
20/03:30am 15.7 ENE 19 27 994.8 - 6.8 - Partly cloudy 7 - - - -
20/03:21am 15.7 ENE 15 21 996.3 - 6.6 - Partly cloudy 6 - - - -
20/03:10am 15.7 ENE 10 16 998.5 - 6.4 - Partly cloudy 6 - - - -
20/03:00am 15.7 ENE 7 10 1000.0 - 6.0 Rain Cloudy 6 - - - -
20/02:50am 15.8 ENE 8 12 1000.9 - 5.6 - Partly cloudy 7 - - - -
20/02:30am 15.7 ENE 10 13 1001.2 - 4.4 - Partly cloudy 7 - - - -
20/02:00am 15.8 E 11 15 1002.4 - 3.2 - Partly cloudy 6 - - - -
20/01:30am 16.0 E 9 11 1003.4 - 1.0 - Partly cloudy 8 - - - -
20/01:00am 16.2 E 9 11 1004.0 - 0.0 - Partly cloudy 10 - - - -
20/12:30am 16.4 ENE 12 16 1003.8 - 0.0 - Partly cloudy 10 - - - -
20/12:19am 16.4 E 15 20 1003.1 - 0.0 - Partly cloudy 10 - - - -
20/12:05am 16.3 E 18 28 1000.9 - 0.0 - Partly cloudy 10 - - - -
20/12:00am 16.3 ENE 20 28 1000.5 - 0.0 Showers Cloudy 10 - - - -
 
Date/Time
EDT
Temp
°C
Wind Pressure Rain since
9am
mm
Weather Cloud Vis
km
Sea
Height
m
Swell
Dir  Spd
kts
Gust
kts
hPa Trend Height
m
Period
s
Dir
19/11:39pm 16.4 E 19 27 1001.0 - 0.0 - Partly cloudy 10 - - - -
19/11:30pm 16.4 E 21 28 1001.0 - 0.0 - Partly cloudy 10 - - - -
19/11:23pm 16.4 E 18 28 1001.0 - 0.0 - Partly cloudy 10 - - - -
19/11:00pm 16.3 E 18 23 1002.1 - 0.0 - Partly cloudy 10 - - - -
19/10:30pm 16.4 E 18 24 1003.7 - 0.0 - Partly cloudy 10 - - - -
19/10:00pm 16.4 ENE 16 26 1004.7 - 0.0 - Partly cloudy 10 - - - -
19/09:55pm 16.4 E 16 26 1004.7 - 0.0 - Partly cloudy 10 - - - -
19/09:30pm 16.5 ENE 16 21 1005.1 - 0.0 - Partly cloudy 10 - - - -
19/09:00pm 16.4 E 17 23 1005.3 - 0.0 - Cloudy 10 - - - -
19/08:30pm 16.6 ENE 14 19 1006.1 - 0.0 - Partly cloudy 10 - - - -
19/08:00pm 16.6 ENE 14 21 1006.4 - 0.0 - - 10 - - - -
19/07:30pm 16.8 ENE 17 24 1006.6 - 0.0 - Partly cloudy 10 - - - -
19/07:00pm 16.7 E 16 21 1007.0 - 0.0 - Partly cloudy 10 - - - -
19/06:30pm 17.1 E 15 20 1008.4 - 0.0 - Partly cloudy 10 - - - -
19/06:00pm 17.2 E 16 20 1008.3 - 0.0 - Partly cloudy 10 - - - -
19/05:30pm 17.7 E 14 19 1009.1 - 0.0 - - 10 - - - -
19/05:00pm 17.9 ENE 12 17 1009.7 - 0.0 - - 10 - - - -
19/04:30pm 18.5 ENE 13 18 1010.0 - 0.0 - - 10 - - - -
19/04:00pm 19.9 ENE 14 19 1010.2 - 0.0 - - 10 - - - -
19/03:30pm 19.7 NNE 13 20 1010.8 - 0.0 - - 10 - - - -
19/03:00pm 20.1 E 11 17 1010.8 - 0.0 - - 10 - - - -
19/02:30pm 20.2 ENE 9 16 1011.3 - 0.0 - - 10 - - - -
19/02:00pm 19.5 ENE 9 18 1011.8 - 0.0 - Partly cloudy 10 - - - -
19/01:30pm 19.4 NE 9 15 1012.3 - 0.0 - - 10 - - - -
19/01:00pm 18.9 ENE 10 15 1012.8 - 0.0 - Partly cloudy 10 - - - -
19/12:30pm 18.9 E 9 15 1013.1 - 0.0 - Partly cloudy 10 - - - -
19/12:00pm 18.2 E 10 14 1013.6 - 0.0 - Partly cloudy 10 - - - -
19/11:30am 18.0 E 10 18 1013.9 - 0.0 - Partly cloudy 10 - - - -
19/11:00am 17.3 ENE 11 16 1014.2 - 0.0 - Partly cloudy 10 - - - -
19/10:30am 17.3 ENE 9 14 1014.6 - 0.0 - - 10 - - - -
19/10:00am 16.7 ESE 9 14 1014.6 - 0.0 - - 10 - - - -
19/09:30am 16.2 SE 9 13 1014.9 - 0.0 - - 10 - - - -
19/09:00am 15.7 SE 10 14 1015.4 - 0.0 - - 10 - - - -
19/08:30am 14.6 SSE 9 14 1015.9 - 0.0 - - 10 - - - -
19/08:00am 13.2 SSE 4 8 1015.8 - 0.0 - - 10 - - - -
19/07:30am 8.3 SE 2 6 1015.8 - 0.0 - - 10 - - - -
19/07:00am 5.7 SSE 3 5 1015.7 - 0.0 - - 10 - - - -
19/06:30am 6.2 S 2 5 1015.7 - 0.0 - - 10 - - - -
19/06:00am 6.0 CALM 0 0 1016.0 - 0.0 - - 10 - - - -
19/05:30am 6.3 CALM 0 0 1015.7 - 0.0 - - 10 - - - -
19/05:00am 7.9 SSE 4 6 1015.5 - 0.0 - - 10 - - - -
19/04:30am 8.0 SSE 5 7 1015.5 - 0.0 - - 10 - - - -
19/04:00am 7.2 S 4 5 1015.8 - 0.0 - - 10 - - - -
19/03:30am 7.4 SSE 4 5 1016.1 - 0.0 - - 10 - - - -
19/03:00am 7.7 SSE 5 6 1016.6 - 0.0 - - 10 - - - -
19/02:30am 8.9 SSW 3 6 1016.9 - 0.0 - - 10 - - - -
19/02:00am 9.2 S 5 7 1017.2 - 0.0 - - 10 - - - -
19/01:30am 8.4 SSE 6 7 1017.4 - 0.0 - - 10 - - - -
19/01:00am 9.5 S 5 7 1017.7 - 0.0 - - 10 - - - -
19/12:30am 9.5 SSE 7 10 1018.0 - 0.0 - - 10 - - - -
19/12:00am 9.4 S 7 9 1018.2 - 0.0 - - 10 - - - -
 
Date/Time
EDT
Temp
°C
Wind Pressure Rain since
9am
mm
Weather Cloud Vis
km
Sea
Height
m
Swell
Dir  Spd
kts
Gust
kts
hPa Trend Height
m
Period
s
Dir
18/11:30pm 10.0 S 6 8 1018.7 - 0.0 - - 10 - - - -
18/11:00pm 10.4 S 6 8 1018.6 - 0.0 - - 10 - - - -
18/10:30pm 10.4 SSE 6 8 1018.6 - 0.0 - - 10 - - - -
18/10:00pm 10.6 SSE 7 9 1018.6 - 0.0 - - 10 - - - -
18/09:30pm 11.0 S 7 9 1018.7 - 0.0 - - 10 - - - -
18/09:00pm 11.9 SSE 8 10 1018.6 - 0.0 - - 10 - - - -
18/08:30pm 12.9 S 9 16 1018.6 - 0.0 - - 10 - - - -
18/08:00pm 14.2 SSW 13 19 1018.4 - 0.0 - Partly cloudy 10 - - - -
18/07:30pm 14.5 S 11 15 1018.2 - 0.0 - - 10 - - - -
18/07:00pm 15.0 SSW 15 20 1018.0 - 0.0 - - 10 - - - -
18/06:30pm 15.3 SSW 16 20 1017.7 - 0.0 - - 10 - - - -
18/06:00pm 15.3 SSW 16 20 1017.4 - 0.0 - - 10 - - - -
18/05:30pm 16.3 S 15 21 1017.4 - 0.0 - - 10 - - - -
18/05:00pm 16.4 SSW 16 20 1017.2 - 0.0 - - 10 - - - -
18/04:30pm 16.3 SSW 18 22 1017.1 - 0.0 - - 10 - - - -
18/04:00pm 16.2 SSW 16 24 1017.0 - 0.0 - Partly cloudy 10 - - - -
18/03:30pm 17.2 SSW 15 20 1017.0 - 0.0 - Partly cloudy 10 - - - -
18/03:00pm 17.0 SSW 15 21 1017.0 - 0.0 - Cloudy 10 - - - -
18/02:30pm 16.6 SSW 18 27 1016.8 - 0.0 - Partly cloudy 10 - - - -
18/02:00pm 16.8 SSW 18 26 1016.7 - 0.0 - Partly cloudy 10 - - - -
18/01:30pm 16.6 SSW 18 24 1016.5 - 0.0 - Partly cloudy 10 - - - -
18/01:00pm 16.6 SW 18 24 1016.3 - 0.0 - Partly cloudy 10 - - - -
18/12:30pm 17.2 SSW 18 28 1016.0 - 0.0 - Partly cloudy 10 - - - -
18/12:00pm 17.0 SSW 20 26 1015.8 - 0.0 - Mostly clear 10 - - - -
18/11:30am 15.4 SSW 19 26 1015.5 - 0.0 - Partly cloudy 10 - - - -
18/11:00am 15.8 SSW 18 25 1015.1 - 0.0 - Partly cloudy 10 - - - -
18/10:30am 15.8 SSW 19 27 1014.7 - 0.0 - Partly cloudy 10 - - - -
18/10:00am 16.0 SSW 21 27 1014.3 - 0.0 - Partly cloudy 10 - - - -
18/09:30am 15.7 SW 19 24 1014.0 - 0.0 - Partly cloudy 10 - - - -
18/09:12am 15.7 SW 17 28 1013.6 - 0.0 - Partly cloudy 10 - - - -
18/09:00am 15.4 SW 19 24 1013.5 - 4.0 - - 10 - - - -
18/08:30am 14.7 SW 17 27 1013.2 - 4.0 - Partly cloudy 10 - - - -
18/08:00am 14.1 SW 20 26 1012.8 - 4.0 - Partly cloudy 10 - - - -
18/07:30am 14.4 SW 19 25 1012.4 - 4.0 - Partly cloudy 10 - - - -

Other Formats:

Comma delimited format used in spreadsheet applications
http://www.bom.gov.au/fwo/IDV60701/IDV60701.94850.axf

JavaScript Object Notation format (JSON) in row-major order
http://www.bom.gov.au/fwo/IDV60701/IDV60701.94850.json